Time;durP1;ratioP1;P1;durP2;ratioP2;P2;SDS_P1;SDS_P2;PMS_P1;PMS_P2;Temp;Humidity;BMP_temperature;BMP_pressure;BME280_temperature;BME280_humidity;BME280_pressure;Samples;Min_cycle;Max_cycle;Signal;HPM_P1;HPM_P2
2024/03/11 00:01:49;;;;;;;44.15;20.52;;;7.10;99.90;;;;;;5041068;28;20022;-75
2024/03/11 00:04:15;;;;;;;46.75;20.88;;;7.10;99.90;;;;;;5041020;28;20034;-75
2024/03/11 00:06:44;;;;;;;41.83;20.50;;;7.10;99.90;;;;;;5040916;28;20270;-75
2024/03/11 00:09:19;;;;;;;44.22;22.77;;;7.20;99.90;;;;;;5040808;28;20303;-75
2024/03/11 00:11:55;;;;;;;48.10;23.30;;;7.20;99.90;;;;;;5039875;28;20080;-75
2024/03/11 00:14:25;;;;;;;47.08;22.27;;;7.20;99.90;;;;;;5039920;28;20080;-75
2024/03/11 00:16:52;;;;;;;43.72;19.92;;;7.20;99.90;;;;;;5040389;28;20291;-75
2024/03/11 00:19:18;;;;;;;45.63;21.58;;;7.20;99.90;;;;;;5025552;28;20021;-75
2024/03/11 00:21:44;;;;;;;39.92;18.85;;;7.20;99.90;;;;;;5040924;28;20025;-75
2024/03/11 00:24:10;;;;;;;41.85;19.13;;;7.10;99.90;;;;;;5040753;28;20149;-75
2024/03/11 00:26:36;;;;;;;47.92;22.67;;;7.10;99.90;;;;;;5041249;28;20079;-75
2024/03/11 00:29:03;;;;;;;46.53;21.75;;;7.10;99.90;;;;;;5040956;28;20192;-75
2024/03/11 00:31:32;;;;;;;41.75;19.67;;;7.10;99.90;;;;;;5040732;28;20048;-75
2024/03/11 00:33:58;;;;;;;43.30;21.08;;;7.10;99.90;;;;;;5024411;28;20026;-75
2024/03/11 00:36:24;;;;;;;44.70;19.58;;;7.10;99.90;;;;;;5025032;28;20040;-75
2024/03/11 00:38:50;;;;;;;46.55;20.52;;;7.00;99.90;;;;;;5040847;28;20030;-75
2024/03/11 00:41:15;;;;;;;44.60;19.00;;;7.00;99.90;;;;;;5025197;28;20076;-75
2024/03/11 00:43:44;;;;;;;45.83;20.67;;;7.00;99.90;;;;;;5042393;28;20101;-75
2024/03/11 00:46:09;;;;;;;51.58;21.60;;;7.00;99.90;;;;;;5039680;28;20068;-75
2024/03/11 00:48:38;;;;;;;46.13;21.35;;;7.00;99.90;;;;;;5031344;28;20283;-75
2024/03/11 00:51:04;;;;;;;43.67;20.25;;;7.00;99.90;;;;;;5015114;28;20048;-75
2024/03/11 00:53:30;;;;;;;44.95;20.45;;;7.00;99.90;;;;;;5031398;28;20025;-75
2024/03/11 00:55:56;;;;;;;44.30;19.85;;;6.90;99.90;;;;;;5031397;28;20076;-76
2024/03/11 00:58:23;;;;;;;47.85;21.85;;;7.00;99.90;;;;;;5031234;28;20030;-75
2024/03/11 01:00:50;;;;;;;45.22;21.00;;;7.00;99.90;;;;;;5031068;28;20026;-75
2024/03/11 01:03:17;;;;;;;42.63;20.90;;;7.00;99.90;;;;;;5031532;28;20241;-75
2024/03/11 01:05:43;;;;;;;42.60;19.98;;;7.00;99.90;;;;;;5031060;28;20021;-75
2024/03/11 01:08:09;;;;;;;45.40;18.63;;;7.00;99.90;;;;;;5048254;28;20026;-75
2024/03/11 01:10:35;;;;;;;33.65;16.80;;;7.00;99.90;;;;;;5014653;28;20056;-75
2024/03/11 01:13:01;;;;;;;46.88;19.67;;;7.00;99.90;;;;;;5030801;28;20033;-75
2024/03/11 01:15:27;;;;;;;42.97;20.38;;;7.00;99.90;;;;;;5030972;28;20161;-75
2024/03/11 01:17:52;;;;;;;44.20;20.23;;;6.90;99.90;;;;;;5030943;28;20032;-75
2024/03/11 01:20:19;;;;;;;38.92;19.55;;;6.90;99.90;;;;;;5014358;28;20171;-76
2024/03/11 01:22:45;;;;;;;44.67;19.83;;;6.90;99.90;;;;;;5031087;28;20087;-75
2024/03/11 01:25:11;;;;;;;41.90;18.85;;;6.90;99.90;;;;;;5030835;28;20270;-75
2024/03/11 01:27:37;;;;;;;41.05;17.83;;;6.90;99.90;;;;;;5014149;28;20032;-75
2024/03/11 01:30:03;;;;;;;42.20;18.35;;;6.90;99.90;;;;;;5030674;28;20036;-75
2024/03/11 01:32:30;;;;;;;43.22;19.92;;;6.90;99.90;;;;;;5047790;28;20026;-75
2024/03/11 01:34:57;;;;;;;39.47;19.30;;;6.90;99.90;;;;;;5030446;28;20017;-75
2024/03/11 01:37:22;;;;;;;44.33;19.40;;;6.90;99.90;;;;;;5030708;28;20032;-75
2024/03/11 01:39:51;;;;;;;43.50;19.48;;;6.90;99.90;;;;;;5047893;28;20219;-75
2024/03/11 01:42:17;;;;;;;42.25;18.23;;;7.00;99.90;;;;;;5047635;28;20021;-75
2024/03/11 01:44:49;;;;;;;37.53;17.73;;;7.00;99.90;;;;;;5030216;28;20048;-76
2024/03/11 01:47:15;;;;;;;41.58;18.73;;;7.10;99.90;;;;;;5014268;28;20095;-75
2024/03/11 01:49:45;;;;;;;41.65;18.83;;;7.00;99.90;;;;;;5013960;28;20029;-75
2024/03/11 01:52:14;;;;;;;43.80;19.60;;;7.00;99.90;;;;;;5030672;28;20025;-75
2024/03/11 01:54:40;;;;;;;42.65;18.90;;;7.00;99.90;;;;;;5029506;28;20029;-75
2024/03/11 01:57:06;;;;;;;47.78;21.42;;;7.00;99.90;;;;;;5013845;28;20025;-75
2024/03/11 01:59:35;;;;;;;46.90;21.45;;;7.10;99.90;;;;;;5030235;28;20056;-75
2024/03/11 02:02:03;;;;;;;55.72;21.30;;;7.00;99.90;;;;;;5047541;28;20171;-75
2024/03/11 02:04:30;;;;;;;50.42;22.50;;;7.10;99.90;;;;;;5030168;28;20021;-75
2024/03/11 02:06:55;;;;;;;48.38;21.90;;;7.10;99.90;;;;;;5030146;28;20021;-75
2024/03/11 02:09:21;;;;;;;44.53;19.13;;;7.10;99.90;;;;;;5047388;28;20167;-75
2024/03/11 02:11:47;;;;;;;48.42;22.08;;;7.10;99.90;;;;;;5029983;28;20025;-75
2024/03/11 02:14:14;;;;;;;54.50;23.05;;;7.10;99.90;;;;;;5047144;28;20037;-75
2024/03/11 02:16:41;;;;;;;52.03;22.25;;;7.10;99.90;;;;;;5029842;28;20025;-75
2024/03/11 02:19:07;;;;;;;52.17;22.17;;;7.10;99.90;;;;;;5030177;28;20026;-75
2024/03/11 02:21:33;;;;;;;51.70;21.95;;;7.10;99.90;;;;;;5029757;28;20048;-76
2024/03/11 02:23:59;;;;;;;57.35;22.83;;;7.10;99.90;;;;;;5047092;28;20021;-75
2024/03/11 02:26:24;;;;;;;50.80;21.90;;;7.10;99.90;;;;;;5029847;28;20040;-75
2024/03/11 02:28:50;;;;;;;58.80;25.23;;;7.10;99.90;;;;;;5029482;28;20044;-75
2024/03/11 02:31:17;;;;;;;63.70;23.52;;;7.20;99.90;;;;;;5029506;28;20018;-75
2024/03/11 02:33:42;;;;;;;55.65;24.48;;;7.10;99.90;;;;;;5047043;28;20085;-76
2024/03/11 02:36:08;;;;;;;54.55;21.63;;;7.10;99.90;;;;;;5029398;28;20287;-75
2024/03/11 02:38:33;;;;;;;62.78;25.15;;;7.10;99.90;;;;;;5029320;28;20165;-75
2024/03/11 02:40:59;;;;;;;62.47;24.65;;;7.10;99.90;;;;;;5012849;28;20025;-75
2024/03/11 02:43:26;;;;;;;57.80;25.42;;;7.10;99.90;;;;;;5046719;28;20044;-75
2024/03/11 02:45:52;;;;;;;64.95;23.95;;;7.10;99.90;;;;;;5046235;28;20041;-75
2024/03/11 02:48:18;;;;;;;73.55;27.00;;;7.10;99.90;;;;;;5046501;28;20022;-75
2024/03/11 02:50:44;;;;;;;71.50;28.20;;;7.10;99.90;;;;;;5046589;28;20322;-75
2024/03/11 02:53:09;;;;;;;70.68;28.95;;;7.10;99.90;;;;;;5029179;28;20021;-75
2024/03/11 02:55:38;;;;;;;72.25;26.42;;;7.10;99.90;;;;;;5046554;28;20025;-75
2024/03/11 02:58:05;;;;;;;65.87;25.97;;;7.10;99.90;;;;;;5029612;28;20029;-75
2024/03/11 03:00:33;;;;;;;67.05;28.00;;;7.10;99.90;;;;;;5012398;28;20036;-75
2024/03/11 03:02:59;;;;;;;64.55;26.13;;;7.10;99.90;;;;;;5029336;28;20029;-75
2024/03/11 03:05:24;;;;;;;64.70;25.75;;;7.10;99.90;;;;;;5012266;28;20061;-75
2024/03/11 03:07:50;;;;;;;73.72;27.25;;;7.10;99.90;;;;;;5028623;28;20034;-75
2024/03/11 03:10:17;;;;;;;61.72;27.27;;;7.10;99.90;;;;;;5028732;28;20289;-75
2024/03/11 03:12:43;;;;;;;75.97;28.42;;;7.00;99.90;;;;;;5012667;28;20033;-75
2024/03/11 03:15:09;;;;;;;76.43;28.35;;;7.10;99.90;;;;;;5012276;28;20052;-75
2024/03/11 03:17:38;;;;;;;69.68;28.23;;;7.00;99.90;;;;;;5029140;28;20028;-76
2024/03/11 03:20:05;;;;;;;70.90;27.90;;;7.00;99.90;;;;;;5028868;28;20112;-75
2024/03/11 03:22:31;;;;;;;69.13;28.65;;;7.00;99.90;;;;;;5028854;28;20036;-74
2024/03/11 03:24:56;;;;;;;72.93;27.70;;;7.00;99.90;;;;;;5028452;28;20049;-74
2024/03/11 03:27:22;;;;;;;75.05;30.23;;;7.00;99.90;;;;;;5028668;28;20045;-74
2024/03/11 03:29:48;;;;;;;68.55;28.77;;;7.10;99.90;;;;;;5028536;28;20017;-74
2024/03/11 03:32:19;;;;;;;78.25;30.63;;;7.10;99.90;;;;;;5012044;28;20025;-75
2024/03/11 03:34:44;;;;;;;78.43;30.88;;;7.10;99.90;;;;;;5029151;28;20210;-74
2024/03/11 03:37:10;;;;;;;72.90;28.67;;;7.10;99.90;;;;;;5028040;28;20021;-74
2024/03/11 03:39:36;;;;;;;72.68;29.52;;;7.00;99.90;;;;;;5028455;28;20029;-75
2024/03/11 03:42:02;;;;;;;77.03;29.58;;;7.00;99.90;;;;;;5028370;28;20029;-74
2024/03/11 03:44:28;;;;;;;74.38;30.25;;;6.90;99.90;;;;;;5028169;28;20183;-76
2024/03/11 03:46:55;;;;;;;72.30;28.98;;;6.90;99.90;;;;;;5028219;28;20176;-75
2024/03/11 03:49:21;;;;;;;77.13;30.98;;;6.90;99.90;;;;;;5045646;28;20099;-75
2024/03/11 03:51:47;;;;;;;70.15;27.70;;;6.90;99.90;;;;;;5045731;28;20274;-75
2024/03/11 03:54:13;;;;;;;71.72;31.40;;;6.90;99.90;;;;;;5045453;28;20099;-74
2024/03/11 03:56:39;;;;;;;74.75;29.58;;;6.80;99.90;;;;;;5028079;28;20278;-75
2024/03/11 03:59:05;;;;;;;77.30;29.20;;;6.80;99.90;;;;;;5011587;28;20068;-75
2024/03/11 04:01:31;;;;;;;75.90;32.20;;;6.80;99.90;;;;;;5011847;28;20317;-75
2024/03/11 04:03:57;;;;;;;68.10;28.13;;;6.80;99.90;;;;;;5028056;28;20033;-75
2024/03/11 04:06:22;;;;;;;71.22;28.83;;;6.80;99.90;;;;;;5011447;28;20022;-75
2024/03/11 04:08:50;;;;;;;68.85;28.50;;;6.80;99.90;;;;;;5028126;28;20033;-75
2024/03/11 04:11:16;;;;;;;65.22;27.30;;;6.80;99.90;;;;;;5028454;28;20041;-75
2024/03/11 04:13:42;;;;;;;68.13;27.48;;;6.80;99.90;;;;;;5028134;28;20036;-75
2024/03/11 04:16:11;;;;;;;71.82;28.40;;;6.70;99.90;;;;;;5044366;28;20036;-75
2024/03/11 04:18:37;;;;;;;70.82;28.20;;;6.70;99.90;;;;;;5030081;28;20101;-75
2024/03/11 04:21:06;;;;;;;78.57;29.52;;;6.70;99.90;;;;;;5015375;28;20033;-75
2024/03/11 04:23:32;;;;;;;71.97;30.08;;;6.70;99.90;;;;;;5048281;28;20017;-75
2024/03/11 04:26:00;;;;;;;73.32;28.55;;;6.70;99.90;;;;;;5031892;28;20311;-75
2024/03/11 04:28:28;;;;;;;82.20;29.77;;;6.70;99.90;;;;;;5048271;28;20028;-75
2024/03/11 04:30:55;;;;;;;74.68;27.75;;;6.70;99.90;;;;;;5032285;28;20033;-75
2024/03/11 04:33:21;;;;;;;72.97;30.17;;;6.70;99.90;;;;;;5032004;28;20021;-75
2024/03/11 04:35:49;;;;;;;70.82;27.90;;;6.60;99.90;;;;;;5031963;28;20021;-75
2024/03/11 04:38:15;;;;;;;75.28;29.85;;;6.60;99.90;;;;;;5015280;28;20026;-75
2024/03/11 04:40:43;;;;;;;77.10;29.63;;;6.60;99.90;;;;;;5031517;28;20025;-75
2024/03/11 04:43:09;;;;;;;69.80;30.63;;;6.60;99.90;;;;;;5031186;28;20029;-75
2024/03/11 04:45:38;;;;;;;61.90;26.30;;;6.60;99.90;;;;;;5048820;28;20047;-75
2024/03/11 04:48:05;;;;;;;77.45;30.27;;;6.60;99.90;;;;;;5031513;28;20084;-75
2024/03/11 04:50:31;;;;;;;63.97;25.67;;;6.60;99.90;;;;;;5048608;28;20286;-75
2024/03/11 04:53:04;;;;;;;62.92;26.25;;;6.60;99.90;;;;;;5031496;28;20030;-75
2024/03/11 04:55:30;;;;;;;68.35;26.88;;;6.70;99.90;;;;;;5031398;28;20101;-75
2024/03/11 04:57:56;;;;;;;58.58;24.20;;;6.70;99.90;;;;;;5014944;28;20026;-74
2024/03/11 05:04:04;;;;;;;59.55;23.65;;;6.70;99.90;;;;;;5048815;28;20234;-74
2024/03/11 05:06:30;;;;;;;59.63;23.95;;;6.80;99.90;;;;;;5014765;28;20025;-74
2024/03/11 05:08:56;;;;;;;54.50;23.40;;;6.80;99.90;;;;;;5031153;28;20055;-75
2024/03/11 05:11:22;;;;;;;60.42;23.45;;;6.80;99.90;;;;;;5048077;28;20096;-75
2024/03/11 05:13:50;;;;;;;56.60;22.67;;;6.90;99.90;;;;;;5014644;28;20033;-75
2024/03/11 05:16:18;;;;;;;53.67;21.75;;;6.90;99.90;;;;;;5031550;28;20029;-74
2024/03/11 05:18:43;;;;;;;57.25;22.55;;;6.90;99.90;;;;;;5048387;28;20048;-75
2024/03/11 05:21:09;;;;;;;55.60;22.33;;;7.00;99.90;;;;;;5048194;28;20040;-75
2024/03/11 05:23:37;;;;;;;54.03;20.77;;;6.90;99.90;;;;;;5031120;28;20022;-75
2024/03/11 05:26:02;;;;;;;50.10;21.42;;;7.00;99.90;;;;;;5031170;28;20096;-75
2024/03/11 05:28:28;;;;;;;48.47;21.98;;;7.00;99.90;;;;;;5030368;28;20021;-75
2024/03/11 05:30:54;;;;;;;55.38;21.38;;;7.00;99.90;;;;;;5030632;28;20048;-74
2024/03/11 05:33:20;;;;;;;50.15;22.23;;;6.90;99.90;;;;;;5050293;28;20021;-75
2024/03/11 05:35:46;;;;;;;53.28;21.67;;;7.00;99.90;;;;;;5021873;28;20029;-74
2024/03/11 05:38:12;;;;;;;53.83;21.80;;;6.90;99.90;;;;;;5037682;28;20017;-75
2024/03/11 05:40:39;;;;;;;51.10;21.20;;;6.90;99.90;;;;;;5038401;28;20017;-75
2024/03/11 05:43:05;;;;;;;53.30;21.58;;;6.90;99.90;;;;;;5037496;28;20026;-75
2024/03/11 05:45:31;;;;;;;54.88;22.80;;;6.90;99.90;;;;;;5038059;28;20080;-74
2024/03/11 05:47:57;;;;;;;54.33;20.63;;;6.90;99.90;;;;;;5034117;28;20021;-74
2024/03/11 05:50:24;;;;;;;47.70;20.33;;;6.90;99.90;;;;;;5030615;28;20037;-74
2024/03/11 05:52:49;;;;;;;53.42;21.65;;;6.90;99.90;;;;;;5030413;28;20075;-74
2024/03/11 05:55:16;;;;;;;51.95;22.15;;;6.90;99.90;;;;;;5030661;28;20175;-74
2024/03/11 05:57:43;;;;;;;55.38;22.92;;;6.90;99.90;;;;;;5030626;28;20207;-74
2024/03/11 06:00:15;;;;;;;49.85;21.50;;;6.90;99.90;;;;;;5030339;28;20025;-74
2024/03/11 06:02:41;;;;;;;57.83;23.48;;;6.90;99.90;;;;;;5047009;28;20144;-74
2024/03/11 06:05:08;;;;;;;54.10;22.65;;;6.80;99.90;;;;;;5030494;28;20037;-74
2024/03/11 06:07:34;;;;;;;54.45;23.48;;;6.80;99.90;;;;;;5030487;28;20013;-74
2024/03/11 06:10:02;;;;;;;56.40;24.83;;;6.80;99.90;;;;;;5014102;28;20100;-74
2024/03/11 06:12:28;;;;;;;50.28;24.02;;;6.70;99.90;;;;;;5014308;28;20060;-74
2024/03/11 06:14:54;;;;;;;55.22;22.65;;;6.70;99.90;;;;;;5031566;28;20033;-74
2024/03/11 06:17:20;;;;;;;52.47;22.52;;;6.60;99.90;;;;;;5033299;28;20025;-75
2024/03/11 06:19:46;;;;;;;54.60;22.80;;;6.60;99.90;;;;;;5033730;28;20153;-76
2024/03/11 06:22:15;;;;;;;53.00;21.83;;;6.50;99.90;;;;;;5018775;28;20048;-74
2024/03/11 06:24:41;;;;;;;56.58;23.67;;;6.50;99.90;;;;;;5017962;28;20021;-74
2024/03/11 06:27:06;;;;;;;60.90;23.45;;;6.50;99.90;;;;;;5013900;28;20350;-75
2024/03/11 06:29:32;;;;;;;56.70;22.02;;;6.40;99.90;;;;;;5030038;28;20041;-75
2024/03/11 06:31:58;;;;;;;54.45;23.33;;;6.30;99.90;;;;;;5029639;28;20052;-75
2024/03/11 06:34:24;;;;;;;55.30;22.00;;;6.30;99.90;;;;;;5029430;28;20048;-75
2024/03/11 06:36:50;;;;;;;53.92;21.73;;;6.20;99.90;;;;;;5046770;28;20072;-75
2024/03/11 06:39:16;;;;;;;47.30;20.45;;;6.20;99.90;;;;;;5029617;28;20029;-75
2024/03/11 06:41:42;;;;;;;53.65;21.80;;;6.10;99.90;;;;;;5028687;28;20096;-75
2024/03/11 06:44:08;;;;;;;50.42;21.17;;;6.10;99.90;;;;;;5046751;28;20037;-75
2024/03/11 06:46:33;;;;;;;53.28;22.65;;;6.10;99.90;;;;;;5046277;28;20046;-75
2024/03/11 06:48:59;;;;;;;55.13;23.42;;;6.10;99.90;;;;;;5046757;28;20029;-75
2024/03/11 06:51:25;;;;;;;52.42;22.75;;;6.10;99.90;;;;;;5046488;28;20033;-75
2024/03/11 06:53:50;;;;;;;57.17;22.70;;;6.10;99.90;;;;;;5029183;28;20044;-74
2024/03/11 06:56:18;;;;;;;52.78;24.38;;;6.10;99.90;;;;;;5029162;28;20061;-79
2024/03/11 06:58:43;;;;;;;52.10;22.92;;;6.20;99.90;;;;;;5029204;28;20025;-75
2024/03/11 07:01:11;;;;;;;53.15;22.55;;;6.20;99.90;;;;;;5012494;28;20035;-75
2024/03/11 07:03:37;;;;;;;55.45;22.67;;;6.20;99.90;;;;;;5029246;28;20022;-75
2024/03/11 07:06:03;;;;;;;60.40;23.92;;;6.20;99.90;;;;;;5028883;28;20051;-75
2024/03/11 07:08:30;;;;;;;62.15;24.33;;;6.20;99.90;;;;;;5028975;28;20057;-75
2024/03/11 07:10:56;;;;;;;54.85;23.13;;;6.30;99.90;;;;;;5029143;28;20040;-74
2024/03/11 07:13:21;;;;;;;61.47;24.98;;;6.30;99.90;;;;;;5029532;28;20025;-75
2024/03/11 07:15:47;;;;;;;64.88;24.45;;;6.30;99.90;;;;;;5028834;28;20021;-74
2024/03/11 07:18:16;;;;;;;51.50;23.25;;;6.30;99.90;;;;;;5012213;28;20029;-75
2024/03/11 07:20:43;;;;;;;56.40;22.20;;;6.30;99.90;;;;;;5047570;28;20021;-75
2024/03/11 07:23:09;;;;;;;58.28;24.45;;;6.40;99.90;;;;;;5045607;28;20029;-75
2024/03/11 07:25:35;;;;;;;61.25;24.48;;;6.40;99.90;;;;;;5028962;28;20057;-75
2024/03/11 07:28:01;;;;;;;57.42;25.15;;;6.50;99.90;;;;;;5028475;28;20313;-75
2024/03/11 07:30:28;;;;;;;58.03;26.05;;;6.60;99.90;;;;;;5028492;28;20025;-75
2024/03/11 07:33:14;;;;;;;59.75;23.98;;;6.80;99.90;;;;;;5045644;28;20025;-75
2024/03/11 07:35:41;;;;;;;54.72;23.77;;;7.10;99.90;;;;;;5012086;28;20021;-75
2024/03/11 07:38:07;;;;;;;52.15;23.15;;;7.30;99.90;;;;;;5028715;28;20079;-75
2024/03/11 07:40:34;;;;;;;47.30;24.90;;;7.20;99.90;;;;;;5045545;28;20037;-75
2024/03/11 07:43:00;;;;;;;52.85;22.58;;;7.20;99.90;;;;;;5028143;28;20025;-75
2024/03/11 07:45:26;;;;;;;67.97;28.05;;;7.20;99.90;;;;;;5027902;28;20045;-75
2024/03/11 07:47:55;;;;;;;57.58;26.20;;;7.20;99.90;;;;;;5045568;28;20022;-75
2024/03/11 07:50:22;;;;;;;55.60;25.52;;;7.20;99.90;;;;;;5028537;28;20049;-75
2024/03/11 07:52:49;;;;;;;49.17;23.00;;;7.20;99.90;;;;;;5027079;28;20199;-74
2024/03/11 07:55:15;;;;;;;50.00;21.80;;;7.30;99.90;;;;;;5028051;28;20122;-75
2024/03/11 07:57:41;;;;;;;51.65;22.25;;;7.30;99.90;;;;;;5027701;28;20025;-75
2024/03/11 08:00:09;;;;;;;51.53;21.13;;;7.30;99.90;;;;;;5011428;28;20047;-75
2024/03/11 08:02:35;;;;;;;48.40;22.13;;;7.40;99.90;;;;;;5011731;28;20029;-75
2024/03/11 08:05:01;;;;;;;48.22;20.00;;;7.50;99.90;;;;;;5028119;28;20056;-75
2024/03/11 08:07:32;;;;;;;54.78;22.17;;;7.50;99.90;;;;;;5028104;28;20025;-75
2024/03/11 08:10:00;;;;;;;48.80;22.25;;;7.60;99.90;;;;;;5028561;28;20021;-75
2024/03/11 08:12:29;;;;;;;49.42;19.65;;;7.70;99.90;;;;;;5027622;28;20037;-75
2024/03/11 08:14:54;;;;;;;49.47;20.83;;;7.70;99.90;;;;;;5028326;28;20033;-75
2024/03/11 08:17:20;;;;;;;51.97;20.83;;;7.70;99.90;;;;;;5027764;28;20032;-75
2024/03/11 08:19:48;;;;;;;50.78;22.80;;;7.70;99.90;;;;;;5011469;28;20044;-75
2024/03/11 08:22:17;;;;;;;49.40;22.50;;;7.80;99.90;;;;;;5027518;28;20029;-75
2024/03/11 08:24:43;;;;;;;58.17;24.20;;;7.80;99.90;;;;;;5044700;28;20022;-75
2024/03/11 08:27:09;;;;;;;52.95;21.40;;;7.80;99.90;;;;;;5027854;28;20093;-75
2024/03/11 08:29:34;;;;;;;51.13;23.15;;;7.90;99.90;;;;;;5011155;28;20037;-76
2024/03/11 08:32:01;;;;;;;48.58;20.42;;;7.90;99.90;;;;;;5028236;28;20152;-75
2024/03/11 08:34:28;;;;;;;48.38;21.13;;;7.90;99.90;;;;;;5027464;28;20179;-74
2024/03/11 08:36:53;;;;;;;53.83;21.77;;;8.00;99.90;;;;;;5044757;28;20155;-75
2024/03/11 08:39:21;;;;;;;48.95;21.17;;;8.00;99.90;;;;;;5027482;28;20092;-75
2024/03/11 08:41:47;;;;;;;47.95;20.33;;;8.10;99.90;;;;;;5044597;28;20025;-75
2024/03/11 08:44:14;;;;;;;52.13;21.73;;;8.20;99.90;;;;;;5044641;28;20144;-74
2024/03/11 08:46:43;;;;;;;48.30;20.48;;;8.20;99.90;;;;;;5044776;28;20121;-75
2024/03/11 08:49:11;;;;;;;48.97;20.52;;;8.20;99.90;;;;;;5027361;28;20029;-74
2024/03/11 08:51:40;;;;;;;42.60;19.15;;;8.30;99.90;;;;;;5027816;28;20100;-74
2024/03/11 08:54:06;;;;;;;46.20;20.13;;;8.40;99.90;;;;;;5043901;28;20033;-74
2024/03/11 08:56:32;;;;;;;44.92;21.20;;;8.40;99.90;;;;;;5010720;28;20029;-74
2024/03/11 08:58:58;;;;;;;46.88;19.48;;;8.50;99.90;;;;;;5027019;28;20247;-74
2024/03/11 09:01:23;;;;;;;47.88;20.08;;;8.60;99.90;;;;;;5044926;28;20182;-75
2024/03/11 09:03:49;;;;;;;44.42;20.00;;;8.60;99.90;;;;;;5010890;28;20041;-74
2024/03/11 09:06:16;;;;;;;45.28;19.25;;;8.70;99.90;;;;;;5014200;28;20039;-74
2024/03/11 09:08:44;;;;;;;48.40;20.90;;;8.70;99.90;;;;;;5031242;28;20013;-74
2024/03/11 09:11:10;;;;;;;46.25;19.90;;;8.70;99.90;;;;;;5015133;28;20105;-74
2024/03/11 09:13:40;;;;;;;48.38;20.13;;;8.60;99.90;;;;;;5031200;28;20283;-74
2024/03/11 09:16:06;;;;;;;49.17;21.13;;;8.70;99.90;;;;;;5033713;28;20081;-74
2024/03/11 09:18:32;;;;;;;43.25;18.90;;;8.70;99.90;;;;;;5032806;28;20270;-74
2024/03/11 09:20:58;;;;;;;44.85;19.15;;;8.70;99.90;;;;;;5032327;28;20144;-75
2024/03/11 09:23:23;;;;;;;39.40;18.77;;;8.80;99.90;;;;;;5049675;28;20021;-72
2024/03/11 09:25:49;;;;;;;42.53;18.08;;;8.80;99.90;;;;;;5015196;28;20029;-73
2024/03/11 09:28:17;;;;;;;43.28;18.23;;;8.80;99.90;;;;;;5015275;28;20049;-73
2024/03/11 09:30:43;;;;;;;42.67;16.75;;;8.90;99.90;;;;;;5051512;28;20013;-74
2024/03/11 09:33:11;;;;;;;42.47;18.35;;;9.00;99.90;;;;;;5034289;28;20044;-75
2024/03/11 09:35:37;;;;;;;42.17;17.83;;;9.00;99.90;;;;;;5036793;28;20025;-74
2024/03/11 09:38:03;;;;;;;37.25;14.98;;;9.10;99.90;;;;;;5035585;28;20026;-73
2024/03/11 09:40:28;;;;;;;35.70;16.05;;;9.10;99.90;;;;;;5035055;28;20064;-73
2024/03/11 09:42:54;;;;;;;38.38;17.23;;;9.20;99.90;;;;;;5018796;28;20037;-73
2024/03/11 09:45:22;;;;;;;37.03;15.73;;;9.40;99.90;;;;;;5051514;28;20046;-74
2024/03/11 09:47:52;;;;;;;34.00;15.82;;;9.60;99.90;;;;;;5035183;28;20077;-75
2024/03/11 09:50:26;;;;;;;31.48;15.63;;;9.70;99.90;;;;;;5036021;28;20029;-75
2024/03/11 09:53:03;;;;;;;33.15;15.77;;;10.20;99.90;;;;;;5023020;28;20033;-76
2024/03/11 09:55:29;;;;;;;33.03;14.98;;;10.40;99.90;;;;;;5039694;28;20053;-73
2024/03/11 09:57:58;;;;;;;29.90;14.23;;;10.10;99.90;;;;;;5039864;28;20052;-74
2024/03/11 10:00:24;;;;;;;31.77;14.15;;;10.20;99.90;;;;;;5039117;28;20036;-75
2024/03/11 10:02:53;;;;;;;30.77;14.05;;;10.10;99.90;;;;;;5041373;28;20029;-75
2024/03/11 10:05:22;;;;;;;29.20;14.70;;;10.10;99.90;;;;;;5038475;28;20025;-74
2024/03/11 10:07:49;;;;;;;32.28;14.48;;;10.10;99.90;;;;;;5020359;28;20021;-74
2024/03/11 10:10:16;;;;;;;29.92;14.73;;;10.00;99.90;;;;;;5037040;28;20025;-75
2024/03/11 10:12:53;;;;;;;30.45;13.82;;;9.90;99.90;;;;;;5038475;28;20029;-74
2024/03/11 10:15:34;;;;;;;33.38;14.60;;;9.90;99.90;;;;;;5036365;28;20041;-75
2024/03/11 10:18:09;;;;;;;30.75;15.30;;;10.00;99.90;;;;;;5034993;28;20025;-74
2024/03/11 10:20:34;;;;;;;28.45;13.98;;;10.00;99.90;;;;;;5051651;28;20033;-74
2024/03/11 10:23:06;;;;;;;29.02;13.32;;;10.10;99.90;;;;;;5033657;28;20036;-76
2024/03/11 10:25:33;;;;;;;28.10;13.13;;;10.20;99.90;;;;;;5034276;28;20037;-75
2024/03/11 10:27:59;;;;;;;28.00;13.70;;;10.20;99.90;;;;;;5035016;28;20021;-74
2024/03/11 10:30:26;;;;;;;34.67;15.27;;;10.30;99.90;;;;;;5035917;28;20033;-75
2024/03/11 10:32:55;;;;;;;24.73;12.85;;;10.30;99.90;;;;;;5022733;28;20064;-76
2024/03/11 10:35:21;;;;;;;25.90;12.98;;;10.20;99.90;;;;;;5040106;28;20049;-77
2024/03/11 10:37:47;;;;;;;30.90;15.98;;;10.30;99.90;;;;;;5038032;28;20056;-75
2024/03/11 10:40:20;;;;;;;27.30;13.18;;;10.40;99.90;;;;;;5019328;28;20048;-76
2024/03/11 10:42:55;;;;;;;30.45;13.00;;;10.40;99.90;;;;;;5031639;28;20040;-76
2024/03/11 10:45:35;;;;;;;28.65;13.82;;;10.20;99.90;;;;;;5032652;28;20202;-75
2024/03/11 10:48:02;;;;;;;26.65;12.98;;;10.10;99.90;;;;;;5021388;28;20037;-75
2024/03/11 10:50:33;;;;;;;29.48;12.93;;;10.20;99.90;;;;;;5022939;28;20029;-76
2024/03/11 10:53:03;;;;;;;28.98;13.80;;;10.40;99.90;;;;;;5039948;28;20025;-76
2024/03/11 10:55:32;;;;;;;28.07;14.27;;;10.40;99.90;;;;;;5039320;28;20033;-76
2024/03/11 10:58:01;;;;;;;26.73;13.20;;;10.50;99.90;;;;;;5038635;28;20297;-75
2024/03/11 11:00:33;;;;;;;24.67;13.88;;;10.50;99.90;;;;;;5039107;28;20063;-75
2024/03/11 11:03:12;;;;;;;23.55;11.18;;;10.40;99.90;;;;;;5037890;28;20049;-75
2024/03/11 11:05:52;;;;;;;26.67;13.60;;;10.40;99.90;;;;;;5021537;28;20045;-75
2024/03/11 11:08:22;;;;;;;;;;;10.30;99.90;;;;;;5038181;28;20041;-75
2024/03/11 11:10:48;;;;;;;23.38;12.32;;;10.40;99.90;;;;;;5053222;28;19915;-74
2024/03/11 11:13:17;;;;;;;25.05;12.60;;;10.40;99.90;;;;;;5029072;28;20088;-76
2024/03/11 11:15:45;;;;;;;31.23;14.15;;;10.40;99.90;;;;;;5029186;28;20075;-75
2024/03/11 11:18:13;;;;;;;24.05;12.57;;;10.50;99.90;;;;;;5011940;28;20111;-76
2024/03/11 11:20:43;;;;;;;28.10;13.38;;;10.40;99.90;;;;;;5028794;28;20044;-75
2024/03/11 11:23:11;;;;;;;23.75;12.48;;;10.40;99.90;;;;;;5028597;28;20033;-76
2024/03/11 11:25:40;;;;;;;25.48;12.05;;;10.40;99.90;;;;;;5028379;28;20295;-76
2024/03/11 11:28:13;;;;;;;24.10;11.73;;;10.40;99.90;;;;;;5028133;28;20013;-76
2024/03/11 11:30:48;;;;;;;23.92;11.98;;;10.40;99.90;;;;;;5028576;28;20302;-76
2024/03/11 11:33:53;;;;;;;23.83;11.50;;;10.40;99.90;;;;;;5045868;28;20243;-76
2024/03/11 11:36:39;;;;;;;23.23;11.75;;;10.50;99.90;;;;;;5045480;28;20101;-76
2024/03/11 11:39:13;;;;;;;26.00;12.95;;;10.60;99.90;;;;;;5045429;28;20263;-76
2024/03/11 11:41:41;;;;;;;116.88;62.30;;;10.60;99.90;;;;;;5045472;28;20057;-76
2024/03/11 11:44:07;;;;;;;26.77;13.63;;;10.60;99.90;;;;;;5027777;28;20255;-75
2024/03/11 11:46:48;;;;;;;320.73;186.00;;;10.30;99.90;;;;;;5044616;28;20115;-75
2024/03/11 11:49:17;;;;;;;273.08;147.65;;;10.30;99.90;;;;;;5028245;28;20040;-75
2024/03/11 11:51:45;;;;;;;65.72;32.75;;;10.40;99.90;;;;;;5044109;28;20056;-75
2024/03/11 11:54:28;;;;;;;147.48;76.32;;;10.40;99.90;;;;;;5027951;28;20052;-75
2024/03/11 11:57:11;;;;;;;32.03;17.13;;;10.50;99.90;;;;;;5028538;28;20044;-75
2024/03/11 11:59:37;;;;;;;33.38;19.58;;;10.50;99.90;;;;;;5028304;28;20025;-74
2024/03/11 12:02:05;;;;;;;27.75;14.30;;;10.50;99.90;;;;;;5027409;28;20029;-75
2024/03/11 12:04:34;;;;;;;27.05;14.35;;;10.50;99.90;;;;;;5027461;28;20059;-75
2024/03/11 12:07:00;;;;;;;28.60;14.73;;;10.60;99.90;;;;;;5027496;28;20029;-76
2024/03/11 12:09:29;;;;;;;25.17;13.77;;;10.50;99.90;;;;;;5027372;28;20041;-76
2024/03/11 12:11:58;;;;;;;28.65;14.10;;;10.50;99.90;;;;;;5027357;28;20021;-76
2024/03/11 12:14:25;;;;;;;29.73;15.25;;;10.50;99.90;;;;;;5010964;28;20294;-76
2024/03/11 12:17:02;;;;;;;37.90;17.17;;;10.50;99.90;;;;;;5027600;28;20037;-76
2024/03/11 12:19:30;;;;;;;32.28;15.25;;;10.50;99.90;;;;;;5028655;28;20247;-76
2024/03/11 12:21:55;;;;;;;35.75;17.88;;;10.70;99.90;;;;;;5027503;28;20037;-75
2024/03/11 12:24:23;;;;;;;32.72;14.82;;;10.80;99.90;;;;;;5027250;28;20022;-76
2024/03/11 12:26:50;;;;;;;45.60;34.17;;;10.70;99.90;;;;;;5010779;28;20045;-76
2024/03/11 12:29:19;;;;;;;29.88;15.90;;;10.70;99.90;;;;;;5027583;28;20092;-75
2024/03/11 12:31:52;;;;;;;30.55;15.25;;;10.80;99.90;;;;;;5011389;28;20029;-75
2024/03/11 12:34:18;;;;;;;28.63;13.95;;;10.90;99.90;;;;;;5011137;28;20029;-75
2024/03/11 12:36:46;;;;;;;30.58;15.25;;;11.00;99.90;;;;;;5027118;28;20095;-76
2024/03/11 12:39:27;;;;;;;27.85;15.77;;;11.10;99.90;;;;;;5028271;28;20071;-75
2024/03/11 12:41:54;;;;;;;30.90;15.05;;;11.20;99.90;;;;;;5047406;28;20103;-77